Time;durP1;ratioP1;P1;durP2;ratioP2;P2;SDS_P1;SDS_P2;PMS_P1;PMS_P2;Temp;Humidity;BMP_temperature;BMP_pressure;BME280_temperature;BME280_humidity;BME280_pressure;Samples;Min_cycle;Max_cycle;Signal;HPM_P1;HPM_P2
2022/09/18 00:01:44;;;;;;;2.23;1.17;;;15.10;48.20;;;;;;5032602;28;20252;-43
2022/09/18 00:04:13;;;;;;;2.67;1.07;;;15.10;48.40;;;;;;5032429;28;20705;-42
2022/09/18 00:06:40;;;;;;;4.22;1.38;;;15.00;48.30;;;;;;5032390;28;20190;-43
2022/09/18 00:09:09;;;;;;;1.70;1.30;;;15.00;48.30;;;;;;5032161;28;20719;-42
2022/09/18 00:11:41;;;;;;;2.10;1.50;;;15.00;48.20;;;;;;5032546;28;20170;-42
2022/09/18 00:14:09;;;;;;;2.95;1.38;;;15.00;48.30;;;;;;5032474;28;20173;-43
2022/09/18 00:16:36;;;;;;;8.15;1.10;;;15.00;48.50;;;;;;5031945;28;20676;-42
2022/09/18 00:19:02;;;;;;;4.15;1.70;;;15.00;48.40;;;;;;5032235;28;20253;-43
2022/09/18 00:21:30;;;;;;;1.85;1.33;;;15.00;48.40;;;;;;5032198;28;20220;-43
2022/09/18 00:23:59;;;;;;;2.22;1.27;;;15.10;48.70;;;;;;5032160;28;20589;-42
2022/09/18 00:26:25;;;;;;;4.30;1.58;;;15.10;48.60;;;;;;5032124;28;20244;-43
2022/09/18 00:28:52;;;;;;;1.88;1.75;;;15.10;48.90;;;;;;5032095;28;20228;-42
2022/09/18 00:31:24;;;;;;;3.63;1.70;;;15.10;49.00;;;;;;5032084;28;20668;-43
2022/09/18 00:33:51;;;;;;;3.90;1.40;;;15.10;49.10;;;;;;5032110;28;20220;-43
2022/09/18 00:36:17;;;;;;;3.58;1.50;;;15.10;49.30;;;;;;5031518;28;20174;-43
2022/09/18 00:38:44;;;;;;;4.47;1.38;;;15.10;49.50;;;;;;5032273;28;20184;-42
2022/09/18 00:41:34;;;;;;;4.18;1.20;;;15.10;49.50;;;;;;5031967;28;20258;-41
2022/09/18 00:44:28;;;;;;;2.42;1.98;;;15.10;49.50;;;;;;5032023;28;20173;-42
2022/09/18 00:46:59;;;;;;;2.35;1.58;;;15.20;49.70;;;;;;5032448;28;20276;-42
2022/09/18 00:49:26;;;;;;;2.00;1.58;;;15.20;50.10;;;;;;5036022;28;20197;-42
2022/09/18 00:51:55;;;;;;;2.15;1.50;;;15.20;49.70;;;;;;5035995;28;20542;-43
2022/09/18 00:54:33;;;;;;;3.83;2.55;;;15.10;50.00;;;;;;5035974;28;20236;-41
2022/09/18 00:57:15;;;;;;;2.58;2.38;;;15.10;50.10;;;;;;5035654;28;20186;-42
2022/09/18 00:59:44;;;;;;;3.50;1.85;;;15.00;50.20;;;;;;5035897;28;20181;-43
2022/09/18 01:02:11;;;;;;;5.45;2.05;;;15.00;50.80;;;;;;5035944;28;20170;-42
2022/09/18 01:04:37;;;;;;;4.07;2.13;;;15.80;51.00;;;;;;5035753;28;20220;-43
2022/09/18 01:07:27;;;;;;;3.40;1.95;;;15.00;50.60;;;;;;5035466;28;20190;-43
2022/09/18 01:10:15;;;;;;;3.15;2.00;;;15.00;50.70;;;;;;5035781;28;20205;-42
2022/09/18 01:13:00;;;;;;;3.00;2.70;;;15.00;50.90;;;;;;5035693;28;20212;-42
2022/09/18 01:15:43;;;;;;;3.90;2.67;;;15.00;50.60;;;;;;5035582;28;20630;-41
2022/09/18 01:18:18;;;;;;;2.80;2.22;;;15.00;50.60;;;;;;5035539;28;20225;-43
2022/09/18 01:20:52;;;;;;;2.88;2.28;;;15.00;50.80;;;;;;5035647;28;20538;-42
2022/09/18 01:23:41;;;;;;;3.70;2.20;;;15.00;50.70;;;;;;5035455;28;20164;-41
2022/09/18 01:26:37;;;;;;;4.15;2.05;;;15.00;50.80;;;;;;5035187;28;20165;-44
2022/09/18 01:29:47;;;;;;;6.57;1.60;;;15.10;50.80;;;;;;5035556;28;20194;-42
2022/09/18 01:32:36;;;;;;;4.68;2.45;;;15.10;50.80;;;;;;5035332;28;20174;-43
2022/09/18 01:35:30;;;;;;;4.13;2.13;;;15.10;50.90;;;;;;5035107;28;20178;-42
2022/09/18 01:38:10;;;;;;;4.90;1.50;;;15.10;51.30;;;;;;5034894;28;20293;-42
2022/09/18 01:40:45;;;;;;;5.75;1.60;;;15.00;50.90;;;;;;5035104;28;20180;-42
2022/09/18 01:43:15;;;;;;;5.10;1.73;;;15.00;51.00;;;;;;5035088;28;20158;-42
2022/09/18 01:45:45;;;;;;;2.13;1.52;;;15.00;51.10;;;;;;5035056;28;20205;-42
2022/09/18 01:48:24;;;;;;;3.92;1.50;;;15.00;51.30;;;;;;5034998;28;20189;-43
2022/09/18 01:51:13;;;;;;;2.47;1.63;;;14.90;51.40;;;;;;5035009;28;20212;-43
2022/09/18 01:53:44;;;;;;;2.63;1.52;;;14.80;51.30;;;;;;5034471;28;20180;-42
2022/09/18 01:56:20;;;;;;;4.55;1.92;;;14.80;52.80;;;;;;5034539;28;20178;-43
2022/09/18 01:58:48;;;;;;;3.25;1.40;;;14.80;51.70;;;;;;5033941;28;20189;-42
2022/09/18 02:01:18;;;;;;;5.32;1.95;;;14.80;51.70;;;;;;5034778;28;20231;-43
2022/09/18 02:04:06;;;;;;;14.52;2.40;;;14.80;51.50;;;;;;5034915;28;20307;-43
2022/09/18 02:06:38;;;;;;;7.55;1.67;;;14.90;51.50;;;;;;5034580;28;20212;-43
2022/09/18 02:09:09;;;;;;;6.93;1.40;;;14.90;51.90;;;;;;5034786;28;20228;-42
2022/09/18 02:11:38;;;;;;;4.55;1.80;;;14.80;51.70;;;;;;5034718;28;20651;-43
2022/09/18 02:14:11;;;;;;;4.20;1.90;;;14.90;51.60;;;;;;5034432;28;20173;-41
2022/09/18 02:16:51;;;;;;;8.82;1.60;;;14.80;51.60;;;;;;5034485;28;20205;-42
2022/09/18 02:19:48;;;;;;;4.82;1.38;;;14.80;51.70;;;;;;5033324;28;20182;-43
2022/09/18 02:22:17;;;;;;;2.28;1.50;;;14.90;51.90;;;;;;5034573;28;20182;-43
2022/09/18 02:24:46;;;;;;;2.58;1.67;;;14.90;51.70;;;;;;5034404;28;20178;-42
2022/09/18 02:27:13;;;;;;;4.75;1.70;;;14.90;51.70;;;;;;5033902;28;20293;-43
2022/09/18 02:29:42;;;;;;;6.47;1.33;;;14.90;51.80;;;;;;5034394;28;20285;-42
2022/09/18 02:32:08;;;;;;;3.03;1.27;;;14.90;51.70;;;;;;5034256;28;20265;-42
2022/09/18 02:34:34;;;;;;;3.03;1.53;;;14.90;51.70;;;;;;5034237;28;20839;-42
2022/09/18 02:37:10;;;;;;;3.95;2.00;;;14.90;51.90;;;;;;5033607;28;20448;-42
2022/09/18 02:39:42;;;;;;;2.30;1.45;;;15.00;51.60;;;;;;5034043;28;20182;-43
2022/09/18 02:42:46;;;;;;;4.97;1.52;;;14.90;51.70;;;;;;5033965;28;20201;-42
2022/09/18 02:45:37;;;;;;;2.33;1.58;;;14.90;51.70;;;;;;4992169;28;20183;-41
2022/09/18 02:48:49;;;;;;;2.10;1.88;;;14.90;51.60;;;;;;5032277;28;20551;-41
2022/09/18 02:51:17;;;;;;;1.80;1.52;;;14.90;51.80;;;;;;5033812;28;20173;-42
2022/09/18 02:54:04;;;;;;;6.63;1.80;;;14.80;51.70;;;;;;5033963;28;20170;-43
2022/09/18 02:56:52;;;;;;;4.40;1.73;;;14.90;51.80;;;;;;5033471;28;20193;-43
2022/09/18 02:59:48;;;;;;;3.05;1.77;;;14.80;51.80;;;;;;5033689;28;20167;-42
2022/09/18 03:02:14;;;;;;;8.77;2.45;;;14.80;51.80;;;;;;5033711;28;20162;-43
2022/09/18 03:04:40;;;;;;;6.07;2.50;;;14.80;52.00;;;;;;5033827;28;20177;-41
2022/09/18 03:07:05;;;;;;;4.77;1.90;;;14.80;51.90;;;;;;5033206;28;20669;-43
2022/09/18 03:09:33;;;;;;;6.10;2.67;;;14.70;52.10;;;;;;5033564;28;20448;-44
2022/09/18 03:12:00;;;;;;;9.23;3.10;;;14.70;52.20;;;;;;5033386;28;20181;-42
2022/09/18 03:14:27;;;;;;;4.38;2.35;;;14.70;52.30;;;;;;5033343;28;20177;-41
2022/09/18 03:16:52;;;;;;;7.40;3.25;;;14.70;52.30;;;;;;5032998;28;20194;-42
2022/09/18 03:19:18;;;;;;;11.13;3.20;;;14.70;52.40;;;;;;5033274;28;20189;-42
2022/09/18 03:21:45;;;;;;;7.10;2.00;;;14.70;52.30;;;;;;5033574;28;20186;-42
2022/09/18 03:24:10;;;;;;;7.68;2.45;;;14.70;52.20;;;;;;5033154;28;20183;-43
2022/09/18 03:26:37;;;;;;;10.47;4.00;;;14.70;52.10;;;;;;5033125;28;20201;-43
2022/09/18 03:29:07;;;;;;;6.70;2.35;;;14.70;52.10;;;;;;5032881;28;20597;-42
2022/09/18 03:31:33;;;;;;;5.80;2.38;;;14.70;52.10;;;;;;5033370;28;20185;-42
2022/09/18 03:33:59;;;;;;;5.60;2.80;;;14.70;52.20;;;;;;5033015;28;20521;-42
2022/09/18 03:36:25;;;;;;;8.17;2.93;;;14.70;52.40;;;;;;5032652;28;20181;-42
2022/09/18 03:38:50;;;;;;;6.50;2.70;;;14.70;52.30;;;;;;5033038;28;20201;-42
2022/09/18 03:41:16;;;;;;;11.93;2.60;;;14.70;52.30;;;;;;5033108;28;20184;-43
2022/09/18 03:43:42;;;;;;;8.87;3.80;;;14.70;52.40;;;;;;5032709;28;20593;-43
2022/09/18 03:46:07;;;;;;;6.10;2.93;;;14.60;52.30;;;;;;5032483;28;20243;-42
2022/09/18 03:48:33;;;;;;;5.90;2.80;;;14.60;52.40;;;;;;5032647;28;20180;-43
2022/09/18 03:50:59;;;;;;;10.50;3.80;;;14.50;52.30;;;;;;5032641;28;20178;-43
2022/09/18 03:53:25;;;;;;;6.93;3.30;;;14.60;52.60;;;;;;5032627;28;20216;-43
2022/09/18 03:55:51;;;;;;;10.47;3.33;;;14.60;52.50;;;;;;5032408;28;20424;-42
2022/09/18 03:58:16;;;;;;;4.90;2.88;;;14.60;52.50;;;;;;5032652;28;20241;-42
2022/09/18 04:00:42;;;;;;;4.90;2.73;;;14.60;52.40;;;;;;5032860;28;20556;-43
2022/09/18 04:03:08;;;;;;;6.53;2.70;;;14.60;52.40;;;;;;5032452;28;20661;-42
2022/09/18 04:05:34;;;;;;;11.00;3.40;;;14.70;52.50;;;;;;5032471;28;20193;-42
2022/09/18 04:07:59;;;;;;;5.53;2.70;;;14.70;52.50;;;;;;5032368;28;20543;-43
2022/09/18 04:10:26;;;;;;;2.80;1.40;;;14.60;52.40;;;;;;5032343;28;20384;-42
2022/09/18 04:12:52;;;;;;;4.95;2.45;;;14.60;52.20;;;;;;5032333;28;20177;-42
2022/09/18 04:15:18;;;;;;;8.55;3.10;;;14.60;52.20;;;;;;5032265;28;20720;-42
2022/09/18 04:17:44;;;;;;;8.37;2.50;;;14.60;52.30;;;;;;5032281;28;20225;-42
2022/09/18 04:20:10;;;;;;;4.40;2.88;;;14.60;52.40;;;;;;5032212;28;20415;-42
2022/09/18 04:22:36;;;;;;;8.05;2.08;;;14.60;52.20;;;;;;5031784;28;20257;-42
2022/09/18 04:25:03;;;;;;;4.30;1.80;;;14.60;52.30;;;;;;5032195;28;20171;-42
2022/09/18 04:27:29;;;;;;;5.40;2.35;;;14.60;52.20;;;;;;5031792;28;20294;-42
2022/09/18 04:29:55;;;;;;;4.40;2.50;;;14.60;52.10;;;;;;5031984;28;20316;-42
2022/09/18 04:32:20;;;;;;;6.03;2.37;;;14.60;51.90;;;;;;5032055;28;20167;-42
2022/09/18 04:34:46;;;;;;;5.30;1.30;;;14.70;52.00;;;;;;5032091;28;20173;-42
2022/09/18 04:37:12;;;;;;;7.13;1.87;;;14.70;52.00;;;;;;5031584;28;20480;-42
2022/09/18 04:39:38;;;;;;;11.83;2.43;;;14.70;52.00;;;;;;5032002;28;20184;-41
2022/09/18 04:42:04;;;;;;;11.57;1.80;;;14.60;51.80;;;;;;5031966;28;20166;-42
2022/09/18 04:44:30;;;;;;;8.68;2.00;;;14.60;51.90;;;;;;5032000;28;20649;-42
2022/09/18 04:46:56;;;;;;;4.53;1.77;;;14.60;52.20;;;;;;5031714;28;20233;-42
2022/09/18 04:49:22;;;;;;;6.00;1.95;;;14.50;52.30;;;;;;5032057;28;20448;-41
2022/09/18 04:51:48;;;;;;;5.65;2.03;;;14.50;51.10;;;;;;5032003;28;20257;-42
2022/09/18 04:54:13;;;;;;;6.00;1.80;;;14.40;52.00;;;;;;5031943;28;20638;-42
2022/09/18 04:56:40;;;;;;;6.03;2.37;;;14.40;52.30;;;;;;5031864;28;20198;-42
2022/09/18 04:59:06;;;;;;;6.97;2.63;;;14.40;52.30;;;;;;5031827;28;20405;-42
2022/09/18 05:01:32;;;;;;;11.77;4.43;;;14.50;52.30;;;;;;5031865;28;20189;-42
2022/09/18 05:03:57;;;;;;;6.00;2.50;;;14.50;52.10;;;;;;5031879;28;20420;-42
2022/09/18 05:06:23;;;;;;;6.03;2.30;;;14.50;52.20;;;;;;5031547;28;20174;-41
2022/09/18 05:08:49;;;;;;;3.30;1.83;;;14.60;52.00;;;;;;5031724;28;20658;-42
2022/09/18 05:11:15;;;;;;;7.47;1.93;;;14.50;51.90;;;;;;5031615;28;20765;-43
2022/09/18 05:13:42;;;;;;;9.27;3.17;;;14.60;51.80;;;;;;5031647;28;20170;-42
2022/09/18 05:16:08;;;;;;;8.82;3.15;;;14.60;51.80;;;;;;5031437;28;20253;-42
2022/09/18 05:18:34;;;;;;;5.65;1.75;;;14.50;51.90;;;;;;5031921;28;20261;-42
2022/09/18 05:21:04;;;;;;;10.50;2.27;;;14.50;51.80;;;;;;5031808;28;20268;-42
2022/09/18 05:23:30;;;;;;;9.05;3.13;;;14.50;51.80;;;;;;5031565;28;20170;-42
2022/09/18 05:25:55;;;;;;;4.23;2.30;;;14.60;51.80;;;;;;5031568;28;20178;-42
2022/09/18 05:28:21;;;;;;;6.43;2.10;;;14.50;51.50;;;;;;5031419;28;20812;-42
2022/09/18 05:30:48;;;;;;;5.35;2.40;;;14.50;51.60;;;;;;5031730;28;20209;-42
2022/09/18 05:33:14;;;;;;;8.32;2.88;;;14.50;51.30;;;;;;5031747;28;20235;-42
2022/09/18 05:35:41;;;;;;;5.03;2.03;;;14.40;51.20;;;;;;5034751;28;20186;-42
2022/09/18 05:38:08;;;;;;;6.10;1.95;;;14.40;51.50;;;;;;5035003;28;20217;-42
2022/09/18 05:40:36;;;;;;;2.53;1.17;;;14.40;51.60;;;;;;5035447;28;20188;-42
2022/09/18 05:43:03;;;;;;;10.63;2.72;;;14.50;52.00;;;;;;5035354;28;20205;-42
2022/09/18 05:45:29;;;;;;;5.03;2.20;;;14.50;51.70;;;;;;5035010;28;20174;-42
2022/09/18 05:47:56;;;;;;;6.30;1.63;;;14.50;51.90;;;;;;5034925;28;20201;-42
2022/09/18 05:50:23;;;;;;;4.47;1.92;;;14.50;51.80;;;;;;5034911;28;20510;-42
2022/09/18 05:53:00;;;;;;;7.55;3.58;;;14.50;51.60;;;;;;5034868;28;20571;-42
2022/09/18 05:55:27;;;;;;;11.07;2.47;;;14.60;51.70;;;;;;5035046;28;20257;-42
2022/09/18 05:57:54;;;;;;;5.72;2.92;;;14.50;51.40;;;;;;5034545;28;20190;-42
2022/09/18 06:00:21;;;;;;;7.95;1.88;;;14.60;51.50;;;;;;5034739;28;20178;-42
2022/09/18 06:03:00;;;;;;;7.25;2.08;;;14.60;51.50;;;;;;5034943;28;20217;-42
2022/09/18 06:05:29;;;;;;;4.15;2.40;;;14.60;51.60;;;;;;5034637;28;20154;-42
2022/09/18 06:07:57;;;;;;;3.95;1.80;;;14.60;51.40;;;;;;5034619;28;20197;-42
2022/09/18 06:10:23;;;;;;;6.35;2.35;;;14.60;51.50;;;;;;5034565;28;20673;-42
2022/09/18 06:12:48;;;;;;;5.10;1.43;;;14.60;51.30;;;;;;5034898;28;20269;-43
2022/09/18 06:15:15;;;;;;;6.00;1.93;;;14.60;51.40;;;;;;5034423;28;20909;-42
2022/09/18 06:17:41;;;;;;;6.95;1.70;;;14.70;51.50;;;;;;5034403;28;20546;-42
2022/09/18 06:20:08;;;;;;;5.07;2.00;;;14.60;51.20;;;;;;5034578;28;20177;-42
2022/09/18 06:22:35;;;;;;;11.88;2.50;;;14.50;50.90;;;;;;5034477;28;20511;-42
2022/09/18 06:25:01;;;;;;;22.08;2.22;;;14.50;51.20;;;;;;5034482;28;20598;-42
2022/09/18 06:27:27;;;;;;;4.05;2.42;;;14.50;51.60;;;;;;5033973;28;20208;-42
2022/09/18 06:29:53;;;;;;;6.87;2.20;;;14.50;51.30;;;;;;5034185;28;20280;-42
2022/09/18 06:32:19;;;;;;;10.77;2.07;;;14.60;51.70;;;;;;5034119;28;20806;-42
2022/09/18 06:34:46;;;;;;;8.43;2.20;;;14.60;51.60;;;;;;5034416;28;20777;-42
2022/09/18 06:37:13;;;;;;;6.43;1.90;;;14.70;51.80;;;;;;5033735;28;20214;-42
2022/09/18 06:39:39;;;;;;;6.28;2.42;;;14.70;52.10;;;;;;5034101;28;20178;-42
2022/09/18 06:42:05;;;;;;;7.45;2.05;;;14.80;52.00;;;;;;5034016;28;20224;-42
2022/09/18 06:44:31;;;;;;;5.28;1.60;;;14.70;51.30;;;;;;5033627;28;20249;-42
2022/09/18 06:46:57;;;;;;;4.80;2.43;;;14.80;51.60;;;;;;5033752;28;20674;-42
2022/09/18 06:49:23;;;;;;;3.37;1.97;;;14.70;51.50;;;;;;5033795;28;20804;-42
2022/09/18 06:51:48;;;;;;;10.73;2.80;;;14.80;51.40;;;;;;5033830;28;20401;-42
2022/09/18 06:54:15;;;;;;;3.13;1.90;;;14.80;51.50;;;;;;5033745;28;20638;-42
2022/09/18 06:56:42;;;;;;;4.22;1.70;;;14.80;51.30;;;;;;5033466;28;20669;-42
2022/09/18 06:59:07;;;;;;;2.63;1.33;;;14.80;51.20;;;;;;5033699;28;20178;-42
2022/09/18 07:01:33;;;;;;;5.70;1.93;;;14.80;51.10;;;;;;5033588;28;20176;-42
2022/09/18 07:03:59;;;;;;;21.30;2.57;;;14.80;51.30;;;;;;5033553;28;20415;-42
2022/09/18 07:06:25;;;;;;;3.80;1.70;;;14.80;50.80;;;;;;5033351;28;20170;-42
2022/09/18 07:08:51;;;;;;;7.13;1.77;;;14.90;51.30;;;;;;5033450;28;20448;-42
2022/09/18 07:11:17;;;;;;;10.45;2.20;;;14.90;51.20;;;;;;5033400;28;20642;-42
2022/09/18 07:13:44;;;;;;;10.00;2.50;;;14.90;51.00;;;;;;5033377;28;20224;-42
2022/09/18 07:16:10;;;;;;;10.18;2.00;;;14.90;51.40;;;;;;5032917;28;20174;-42
2022/09/18 07:18:35;;;;;;;9.40;1.90;;;14.90;51.20;;;;;;5033237;28;20661;-42
2022/09/18 07:21:01;;;;;;;4.70;1.47;;;15.00;51.20;;;;;;5033221;28;20409;-42
2022/09/18 07:23:29;;;;;;;8.70;2.47;;;15.00;51.60;;;;;;5033329;28;20198;-42
2022/09/18 07:25:59;;;;;;;8.27;3.28;;;15.00;50.40;;;;;;5033213;28;20217;-42
2022/09/18 07:28:25;;;;;;;4.32;2.03;;;15.00;50.60;;;;;;5033020;28;20279;-42
2022/09/18 07:30:51;;;;;;;7.32;1.88;;;15.10;51.20;;;;;;5032985;28;20170;-42
2022/09/18 07:33:16;;;;;;;3.13;1.70;;;15.20;51.30;;;;;;5033045;28;20673;-42
2022/09/18 07:35:42;;;;;;;7.13;2.07;;;15.20;51.30;;;;;;5032847;28;20193;-42
2022/09/18 07:38:09;;;;;;;6.07;2.37;;;15.30;50.80;;;;;;5032919;28;20216;-42
2022/09/18 07:40:35;;;;;;;5.22;2.78;;;15.30;51.30;;;;;;5034618;28;20224;-42
2022/09/18 07:43:05;;;;;;;10.27;1.90;;;15.30;50.70;;;;;;5036239;28;20204;-42
2022/09/18 07:45:31;;;;;;;4.40;2.00;;;15.30;50.60;;;;;;5034540;28;20208;-43
2022/09/18 07:48:00;;;;;;;11.77;2.42;;;15.30;50.00;;;;;;5032756;28;20204;-42
2022/09/18 07:50:26;;;;;;;7.10;2.47;;;15.40;50.20;;;;;;5032689;28;20673;-43
2022/09/18 07:52:55;;;;;;;2.97;1.80;;;15.40;49.70;;;;;;5032667;28;20257;-43
2022/09/18 07:55:23;;;;;;;5.13;2.03;;;15.50;49.60;;;;;;5032698;28;20173;-42
2022/09/18 07:58:00;;;;;;;9.50;2.47;;;15.50;50.10;;;;;;5031869;28;20278;-42
2022/09/18 08:00:28;;;;;;;6.22;2.65;;;15.50;49.30;;;;;;5032556;28;20245;-42
2022/09/18 08:03:05;;;;;;;5.40;2.20;;;15.60;49.90;;;;;;5032782;28;20178;-42
2022/09/18 08:05:31;;;;;;;5.75;2.20;;;15.60;49.70;;;;;;5032413;28;20173;-42
2022/09/18 08:08:11;;;;;;;4.70;2.20;;;15.70;50.30;;;;;;5032203;28;20252;-42
2022/09/18 08:10:38;;;;;;;6.00;1.95;;;15.90;50.50;;;;;;5032318;28;20471;-42
2022/09/18 08:13:05;;;;;;;7.20;2.60;;;16.00;50.60;;;;;;5032306;28;20690;-42
2022/09/18 08:15:32;;;;;;;8.30;1.77;;;16.10;50.20;;;;;;5032310;28;20174;-42
2022/09/18 08:17:58;;;;;;;9.52;3.85;;;16.20;49.70;;;;;;5032230;28;20197;-43
2022/09/18 08:20:23;;;;;;;6.03;2.17;;;16.10;48.60;;;;;;5032528;28;20174;-42
2022/09/18 08:22:49;;;;;;;5.20;1.63;;;16.10;45.40;;;;;;5032124;28;20409;-43
2022/09/18 08:25:16;;;;;;;5.00;1.90;;;16.00;48.00;;;;;;5032129;28;20418;-43
2022/09/18 08:27:42;;;;;;;3.35;2.03;;;16.00;47.60;;;;;;5031960;28;20459;-42
2022/09/18 08:30:10;;;;;;;7.43;2.30;;;16.00;47.20;;;;;;5032022;28;20193;-42
2022/09/18 08:32:36;;;;;;;7.40;2.35;;;16.10;48.60;;;;;;5032144;28;20193;-43
2022/09/18 08:35:03;;;;;;;3.97;2.00;;;16.20;47.90;;;;;;5032127;28;20587;-42
2022/09/18 08:37:29;;;;;;;6.10;2.20;;;16.30;47.40;;;;;;5031561;28;20460;-42
2022/09/18 08:39:55;;;;;;;4.82;2.20;;;16.40;47.80;;;;;;5032331;28;20185;-42
2022/09/18 08:42:33;;;;;;;5.30;2.08;;;16.60;48.20;;;;;;5031996;28;20177;-43
2022/09/18 08:45:21;;;;;;;6.60;2.70;;;16.80;47.10;;;;;;5030663;28;20181;-42
2022/09/18 08:47:58;;;;;;;5.43;1.77;;;16.90;46.80;;;;;;5031449;28;20205;-42
2022/09/18 08:50:33;;;;;;;3.35;1.40;;;17.10;44.00;;;;;;5031819;28;20669;-42
2022/09/18 08:53:05;;;;;;;7.50;2.13;;;17.10;44.50;;;;;;5031968;28;20173;-43
2022/09/18 08:55:37;;;;;;;8.93;1.60;;;17.20;44.50;;;;;;5031741;28;20157;-43
2022/09/18 08:58:12;;;;;;;5.65;1.85;;;17.20;45.00;;;;;;5031741;28;20204;-42
2022/09/18 09:00:46;;;;;;;4.22;1.60;;;17.30;43.90;;;;;;5032092;28;20627;-43
2022/09/18 09:03:30;;;;;;;3.80;1.60;;;17.40;45.20;;;;;;5031803;28;20704;-42
2022/09/18 09:05:58;;;;;;;4.80;1.85;;;17.40;43.80;;;;;;5031412;28;20659;-42
2022/09/18 09:08:42;;;;;;;5.13;1.40;;;17.40;42.70;;;;;;5033508;28;20205;-43
2022/09/18 09:11:32;;;;;;;2.10;1.52;;;17.40;42.90;;;;;;5035879;28;20182;-42
2022/09/18 09:14:19;;;;;;;6.28;1.73;;;17.50;44.10;;;;;;5035854;28;20166;-43
2022/09/18 09:17:02;;;;;;;7.93;2.50;;;17.50;44.60;;;;;;5035427;28;20193;-43
2022/09/18 09:19:48;;;;;;;3.35;1.58;;;17.50;42.00;;;;;;5035758;28;20173;-43
2022/09/18 09:22:25;;;;;;;3.40;2.15;;;17.30;42.00;;;;;;5035524;28;20220;-43
2022/09/18 09:25:00;;;;;;;8.52;2.38;;;17.20;41.60;;;;;;5035629;28;20158;-42
2022/09/18 09:27:44;;;;;;;5.68;2.38;;;17.30;43.50;;;;;;5035468;28;20189;-43
2022/09/18 09:30:17;;;;;;;12.25;3.55;;;17.40;43.40;;;;;;5035473;28;20625;-42
2022/09/18 09:32:51;;;;;;;6.93;1.60;;;17.50;40.30;;;;;;5035312;28;20186;-43
2022/09/18 09:35:41;;;;;;;7.75;2.10;;;17.60;39.90;;;;;;5035310;28;20178;-42
2022/09/18 09:38:49;;;;;;;4.50;1.83;;;17.80;42.40;;;;;;5035235;28;20216;-43
2022/09/18 09:41:39;;;;;;;4.00;1.75;;;18.00;41.30;;;;;;5035099;28;20162;-43
2022/09/18 09:44:38;;;;;;;4.22;2.53;;;18.10;41.60;;;;;;5035074;28;20182;-43
2022/09/18 09:47:24;;;;;;;3.30;1.95;;;18.20;41.80;;;;;;5034821;28;20190;-43
2022/09/18 09:50:04;;;;;;;5.90;1.42;;;18.40;41.60;;;;;;5034998;28;20224;-43
2022/09/18 09:52:30;;;;;;;5.90;1.63;;;18.50;38.90;;;;;;5034876;28;20202;-43
2022/09/18 09:55:00;;;;;;;3.97;1.45;;;18.50;39.50;;;;;;5034851;28;20653;-43
2022/09/18 09:57:53;;;;;;;8.43;2.20;;;18.60;37.00;;;;;;5034813;28;20194;-43
2022/09/18 10:00:20;;;;;;;6.30;1.90;;;18.40;36.60;;;;;;5034750;28;20188;-43
2022/09/18 10:02:48;;;;;;;5.72;1.50;;;18.10;38.70;;;;;;5034777;28;20178;-43
2022/09/18 10:05:36;;;;;;;6.35;2.20;;;18.20;39.50;;;;;;5034661;28;20181;-43
2022/09/18 10:08:22;;;;;;;3.15;1.65;;;18.40;40.30;;;;;;5034751;28;20206;-43
2022/09/18 10:10:56;;;;;;;4.05;1.67;;;18.60;40.20;;;;;;5034722;28;20209;-42
2022/09/18 10:13:35;;;;;;;3.30;1.70;;;18.70;38.10;;;;;;5034556;28;20547;-42
2022/09/18 10:16:17;;;;;;;2.08;1.23;;;18.90;38.90;;;;;;5034417;28;20194;-42
2022/09/18 10:18:48;;;;;;;6.10;1.80;;;19.00;37.40;;;;;;5034565;28;20162;-43
2022/09/18 10:21:36;;;;;;;6.93;1.50;;;19.00;37.00;;;;;;5033959;28;20173;-43
2022/09/18 10:24:23;;;;;;;3.63;1.40;;;19.10;36.90;;;;;;5034695;28;20158;-43
2022/09/18 10:26:52;;;;;;;4.50;1.85;;;19.20;38.70;;;;;;5033997;28;20190;-43
2022/09/18 10:29:18;;;;;;;3.67;1.50;;;19.20;37.20;;;;;;5034143;28;20585;-43
2022/09/18 10:31:50;;;;;;;3.10;1.80;;;19.20;34.20;;;;;;5034444;28;20174;-43
2022/09/18 10:34:42;;;;;;;3.75;2.17;;;19.10;35.90;;;;;;5034216;28;20408;-43
2022/09/18 10:37:13;;;;;;;2.97;1.15;;;19.30;37.90;;;;;;5033820;28;20212;-42
2022/09/18 10:39:52;;;;;;;5.15;1.80;;;19.50;38.30;;;;;;5034028;28;20173;-43
2022/09/18 10:42:21;;;;;;;3.30;1.25;;;19.70;38.20;;;;;;5034000;28;20169;-43
2022/09/18 10:45:02;;;;;;;3.15;1.35;;;19.80;36.40;;;;;;5034211;28;20184;-43
2022/09/18 10:47:29;;;;;;;6.97;1.90;;;19.80;33.70;;;;;;5033680;28;20193;-43
2022/09/18 10:50:10;;;;;;;5.38;1.90;;;19.70;35.20;;;;;;5032851;28;20202;-43
2022/09/18 10:52:36;;;;;;;7.95;2.63;;;19.70;35.70;;;;;;5034231;28;20158;-43
2022/09/18 10:55:06;;;;;;;4.13;1.52;;;19.70;34.80;;;;;;5033967;28;20170;-43
2022/09/18 10:57:35;;;;;;;8.15;2.28;;;19.50;33.40;;;;;;5033705;28;20205;-42
2022/09/18 11:00:12;;;;;;;7.70;1.60;;;19.40;35.20;;;;;;5033685;28;20262;-42
2022/09/18 11:02:46;;;;;;;3.55;1.15;;;19.20;36.70;;;;;;5033691;28;20169;-43
2022/09/18 11:05:18;;;;;;;2.95;1.15;;;18.90;37.60;;;;;;5033533;28;20180;-42
2022/09/18 11:07:49;;;;;;;4.30;1.75;;;18.80;37.40;;;;;;5033221;28;20700;-43
2022/09/18 11:10:18;;;;;;;4.97;1.95;;;18.80;38.80;;;;;;5033333;28;20205;-43
2022/09/18 11:12:55;;;;;;;2.30;1.30;;;19.00;38.70;;;;;;5033436;28;20181;-42
2022/09/18 11:15:24;;;;;;;2.65;1.10;;;19.20;36.90;;;;;;5033389;28;20534;-42
2022/09/18 11:17:53;;;;;;;3.92;1.27;;;19.20;36.80;;;;;;5033012;28;20193;-43
2022/09/18 11:20:40;;;;;;;4.25;1.23;;;19.10;37.10;;;;;;5033229;28;20279;-42
2022/09/18 11:23:18;;;;;;;2.95;1.30;;;19.00;37.70;;;;;;5033582;28;20565;-43
2022/09/18 11:25:47;;;;;;;5.20;1.65;;;19.00;39.70;;;;;;5032998;28;20638;-42
2022/09/18 11:28:28;;;;;;;4.25;1.55;;;18.90;40.70;;;;;;5033028;28;20205;-42
2022/09/18 11:31:02;;;;;;;2.97;1.48;;;18.90;40.80;;;;;;5033094;28;20190;-42
2022/09/18 11:33:36;;;;;;;4.65;1.80;;;18.70;41.20;;;;;;5033029;28;20174;-43
2022/09/18 11:36:07;;;;;;;2.47;1.30;;;18.40;41.20;;;;;;5032889;28;20626;-42
2022/09/18 11:38:43;;;;;;;1.88;1.42;;;18.30;43.10;;;;;;5032846;28;20212;-42
2022/09/18 11:41:10;;;;;;;2.80;1.25;;;18.30;44.40;;;;;;5033178;28;20196;-42
2022/09/18 11:43:42;;;;;;;2.95;0.93;;;18.30;44.20;;;;;;5032834;28;20185;-43
2022/09/18 11:46:19;;;;;;;2.80;2.40;;;18.40;45.50;;;;;;5032600;28;20621;-42
2022/09/18 11:49:24;;;;;;;2.63;1.75;;;18.50;45.20;;;;;;5032698;28;20170;-42
2022/09/18 11:51:56;;;;;;;3.95;1.55;;;18.50;44.40;;;;;;5026462;28;20177;-43
2022/09/18 11:54:41;;;;;;;4.63;1.92;;;18.50;44.30;;;;;;5032673;28;20169;-42
2022/09/18 11:57:24;;;;;;;6.10;2.05;;;18.50;44.70;;;;;;5032322;28;20193;-43
2022/09/18 12:00:16;;;;;;;1.98;1.48;;;18.60;45.70;;;;;;5032563;28;20173;-42
2022/09/18 12:03:15;;;;;;;3.30;1.63;;;18.90;47.40;;;;;;5032566;28;20174;-42
2022/09/18 12:05:59;;;;;;;2.35;1.10;;;19.10;44.50;;;;;;5032469;28;20185;-42
2022/09/18 12:08:30;;;;;;;4.32;1.42;;;19.30;42.30;;;;;;5032596;28;20565;-43
2022/09/18 12:11:29;;;;;;;2.25;1.10;;;19.40;38.20;;;;;;5032311;28;20197;-43
2022/09/18 12:14:10;;;;;;;2.15;1.15;;;19.40;37.50;;;;;;5024858;28;20210;-43
2022/09/18 12:16:59;;;;;;;2.85;1.23;;;19.40;35.20;;;;;;5032350;28;20205;-43
2022/09/18 12:19:42;;;;;;;4.45;1.40;;;19.40;37.60;;;;;;5032358;28;20188;-42
2022/09/18 12:22:23;;;;;;;3.40;1.38;;;19.40;37.90;;;;;;5032334;28;20237;-42
2022/09/18 12:24:50;;;;;;;3.00;1.55;;;19.40;39.20;;;;;;5032192;28;20177;-42
2022/09/18 12:27:35;;;;;;;2.10;1.30;;;19.30;40.40;;;;;;5031868;28;20665;-42
2022/09/18 12:30:18;;;;;;;2.45;1.20;;;19.50;41.10;;;;;;5032187;28;20205;-43
2022/09/18 12:32:47;;;;;;;5.82;1.52;;;19.70;41.40;;;;;;5032099;28;20206;-43
2022/09/18 12:35:21;;;;;;;1.95;1.20;;;19.80;34.30;;;;;;5031981;28;20646;-43
2022/09/18 12:37:47;;;;;;;3.25;1.50;;;19.90;35.70;;;;;;5031706;28;20750;-42
2022/09/18 12:40:25;;;;;;;4.40;1.90;;;19.80;36.00;;;;;;5032165;28;20259;-42
2022/09/18 12:43:24;;;;;;;2.38;1.48;;;19.90;34.00;;;;;;5031642;28;20173;-42
2022/09/18 12:45:59;;;;;;;4.47;1.33;;;19.80;35.60;;;;;;5032079;28;20182;-42
2022/09/18 12:48:46;;;;;;;3.47;1.30;;;19.60;35.90;;;;;;5032203;28;20730;-42
2022/09/18 12:51:35;;;;;;;2.05;1.15;;;19.60;36.50;;;;;;5031997;28;20158;-42
2022/09/18 12:54:22;;;;;;;4.57;1.85;;;19.70;37.10;;;;;;5031904;28;20197;-42
2022/09/18 12:57:13;;;;;;;1.50;0.80;;;19.80;36.80;;;;;;5031872;28;20186;-43
2022/09/18 13:00:08;;;;;;;2.67;0.98;;;20.10;35.40;;;;;;5031806;28;20166;-43
2022/09/18 13:02:48;;;;;;;3.65;1.77;;;20.10;34.80;;;;;;5031744;28;20204;-43
2022/09/18 13:05:19;;;;;;;3.08;1.48;;;20.20;35.10;;;;;;5031865;28;20228;-42
2022/09/18 13:08:10;;;;;;;3.10;1.27;;;20.40;35.20;;;;;;5031525;28;20190;-42
2022/09/18 13:10:44;;;;;;;4.75;1.48;;;20.40;35.40;;;;;;5031714;28;20658;-43
2022/09/18 13:13:30;;;;;;;1.90;1.02;;;20.50;35.00;;;;;;5031949;28;20174;-43
2022/09/18 13:16:06;;;;;;;2.53;1.05;;;20.20;34.40;;;;;;5031536;28;20173;-42